Time;durP1;ratioP1;P1;durP2;ratioP2;P2;SDS_P1;SDS_P2;PMS_P1;PMS_P2;Temp;Humidity;BMP_temperature;BMP_pressure;BME280_temperature;BME280_humidity;BME280_pressure;Samples;Min_cycle;Max_cycle;Signal;HPM_P1;HPM_P2
2022/09/17 00:01:56;;;;;;;1.97;1.60;;;18.50;59.70;19.60;100416.00;;;;5068758;28;20190;-43
2022/09/17 00:04:22;;;;;;;1.77;1.57;;;18.50;59.70;19.60;100422.00;;;;5068474;28;20349;-43
2022/09/17 00:06:47;;;;;;;2.30;1.70;;;18.50;59.70;19.60;100420.00;;;;5068557;28;20173;-43
2022/09/17 00:09:14;;;;;;;1.70;1.50;;;18.50;59.70;19.60;100410.00;;;;5083607;28;20189;-42
2022/09/17 00:11:40;;;;;;;2.50;1.90;;;18.50;59.70;19.60;100416.00;;;;5068366;28;20287;-43
2022/09/17 00:14:08;;;;;;;1.50;1.30;;;18.50;59.70;19.60;100424.00;;;;5082873;28;20201;-43
2022/09/17 00:16:40;;;;;;;2.60;1.73;;;18.50;59.70;19.50;100409.00;;;;5083672;28;20180;-42
2022/09/17 00:19:09;;;;;;;2.43;1.77;;;18.50;59.70;19.50;100405.00;;;;5073460;28;20173;-44
2022/09/17 00:21:35;;;;;;;2.00;1.73;;;18.50;59.70;19.50;100423.00;;;;5068843;28;20194;-43
2022/09/17 00:24:03;;;;;;;3.07;1.90;;;18.40;59.70;19.50;100418.00;;;;5068586;28;20272;-43
2022/09/17 00:26:29;;;;;;;1.57;1.40;;;18.40;59.70;19.50;100413.00;;;;5068901;28;20173;-43
2022/09/17 00:28:56;;;;;;;2.00;1.80;;;18.40;60.40;19.50;100416.00;;;;5050198;28;20196;-44
2022/09/17 00:31:21;;;;;;;1.90;1.60;;;18.40;59.70;19.50;100417.00;;;;5068057;28;20543;-42
2022/09/17 00:33:47;;;;;;;1.73;1.60;;;18.50;59.70;19.50;100409.00;;;;5076252;28;20169;-42
2022/09/17 00:36:13;;;;;;;2.00;1.40;;;18.40;59.70;19.50;100412.00;;;;5068371;28;20166;-42
2022/09/17 00:38:39;;;;;;;2.10;1.80;;;18.50;59.70;19.50;100419.00;;;;5079335;28;20182;-43
2022/09/17 00:41:05;;;;;;;1.70;1.47;;;18.40;59.70;19.50;100420.00;;;;5085243;28;20173;-42
2022/09/17 00:43:40;;;;;;;2.43;1.77;;;18.40;59.80;19.50;100428.00;;;;5068789;28;20216;-42
2022/09/17 00:46:30;;;;;;;1.63;1.50;;;18.40;59.80;19.50;100415.00;;;;5068357;28;20222;-43
2022/09/17 00:48:57;;;;;;;2.20;1.70;;;18.40;59.80;19.40;100428.00;;;;5066804;28;20379;-42
2022/09/17 00:51:34;;;;;;;2.10;1.70;;;18.40;59.80;19.40;100426.00;;;;5049837;28;20259;-43
2022/09/17 00:54:01;;;;;;;2.33;1.60;;;18.40;59.80;19.40;100411.00;;;;5066542;28;20214;-42
2022/09/17 00:56:31;;;;;;;1.87;1.60;;;18.40;59.80;19.40;100420.00;;;;5066987;28;20197;-43
2022/09/17 00:58:56;;;;;;;2.53;1.70;;;18.40;59.80;19.40;100424.00;;;;5066173;28;20181;-43
2022/09/17 01:01:22;;;;;;;1.93;1.50;;;18.40;59.80;19.40;100430.00;;;;5066458;28;20247;-43
2022/09/17 01:03:48;;;;;;;1.63;1.50;;;18.40;59.80;19.40;100425.00;;;;5067813;28;20183;-42
2022/09/17 01:06:25;;;;;;;1.73;1.50;;;18.30;59.60;19.40;100430.00;;;;5069511;28;20268;-43
2022/09/17 01:09:14;;;;;;;1.60;1.50;;;18.30;59.70;19.40;100431.00;;;;5071379;28;20173;-44
2022/09/17 01:12:14;;;;;;;1.83;1.50;;;18.30;59.70;19.40;100442.00;;;;5071662;28;20304;-42
2022/09/17 01:15:14;;;;;;;2.53;1.70;;;18.30;59.80;19.40;100443.00;;;;5061835;28;20220;-42
2022/09/17 01:18:09;;;;;;;2.40;1.60;;;18.30;59.80;19.30;100443.00;;;;5056372;28;20174;-43
2022/09/17 01:21:29;;;;;;;1.53;1.43;;;18.30;59.80;19.30;100445.00;;;;5070315;28;20240;-42
2022/09/17 01:24:11;;;;;;;1.70;1.50;;;18.30;59.80;19.30;100452.00;;;;5051302;28;20427;-42
2022/09/17 01:27:05;;;;;;;1.63;1.50;;;18.30;59.80;19.30;100455.00;;;;5070444;28;20165;-41
2022/09/17 01:30:11;;;;;;;2.53;1.77;;;18.30;59.80;19.30;100450.00;;;;5071897;28;20505;-42
2022/09/17 01:32:58;;;;;;;1.90;1.70;;;18.30;59.80;19.20;100437.00;;;;5071465;28;20376;-43
2022/09/17 01:35:26;;;;;;;2.00;1.60;;;18.20;59.80;19.20;100435.00;;;;5069785;28;20428;-42
2022/09/17 01:38:16;;;;;;;1.90;1.50;;;18.30;59.90;19.20;100442.00;;;;5069966;28;20778;-41
2022/09/17 01:41:06;;;;;;;1.47;1.37;;;18.30;59.90;19.20;100434.00;;;;5071350;28;20230;-42
2022/09/17 01:43:56;;;;;;;2.03;1.50;;;18.20;59.80;19.30;100428.00;;;;5077441;28;20165;-42
2022/09/17 01:46:34;;;;;;;2.83;1.67;;;18.20;59.80;19.20;100446.00;;;;5072641;28;20176;-42
2022/09/17 01:49:02;;;;;;;1.90;1.70;;;18.30;59.90;19.20;100435.00;;;;5053310;28;20169;-42
2022/09/17 01:51:39;;;;;;;1.93;1.57;;;18.20;59.80;19.20;100445.00;;;;5052925;28;20198;-43
2022/09/17 01:54:19;;;;;;;1.80;1.60;;;18.20;59.80;19.20;100445.00;;;;5053248;28;20713;-42
2022/09/17 01:56:48;;;;;;;2.87;1.80;;;18.20;59.80;19.20;100442.00;;;;5082930;28;20199;-41
2022/09/17 01:59:29;;;;;;;2.20;1.70;;;18.20;59.80;19.20;100441.00;;;;5058913;28;20192;-41
2022/09/17 02:02:13;;;;;;;2.73;1.60;;;18.20;59.80;19.20;100444.00;;;;5052970;28;20416;-43
2022/09/17 02:05:06;;;;;;;1.70;1.60;;;18.20;59.80;19.20;100442.00;;;;5054634;28;20175;-43
2022/09/17 02:07:33;;;;;;;1.73;1.60;;;18.20;59.80;19.20;100446.00;;;;5055106;28;20276;-43
2022/09/17 02:10:06;;;;;;;2.33;1.60;;;18.20;59.80;19.20;100447.00;;;;5080334;28;20672;-42
2022/09/17 02:12:37;;;;;;;1.70;1.60;;;18.20;59.90;19.20;100444.00;;;;5068314;28;20250;-41
2022/09/17 02:15:06;;;;;;;2.40;1.60;;;18.20;59.90;19.20;100452.00;;;;5084792;28;20304;-41
2022/09/17 02:17:42;;;;;;;1.70;1.60;;;18.20;59.90;19.20;100450.00;;;;5058990;28;20528;-42
2022/09/17 02:20:08;;;;;;;1.50;1.40;;;18.20;59.90;19.20;100444.00;;;;5081015;28;20192;-42
2022/09/17 02:22:46;;;;;;;1.70;1.60;;;18.10;59.80;19.20;100440.00;;;;5058092;28;20223;-45
2022/09/17 02:25:12;;;;;;;2.70;1.90;;;18.10;59.80;19.20;100451.00;;;;5053778;28;20168;-44
2022/09/17 02:28:18;;;;;;;1.43;1.30;;;18.20;59.90;19.20;100451.00;;;;5078313;28;20591;-42
2022/09/17 02:30:44;;;;;;;1.60;1.50;;;18.20;59.90;19.10;100445.00;;;;5073543;28;20191;-43
2022/09/17 02:33:12;;;;;;;2.07;1.57;;;18.10;59.90;19.10;100451.00;;;;5070555;28;20742;-43
2022/09/17 02:35:38;;;;;;;2.43;1.80;;;18.10;59.90;19.10;100454.00;;;;5052019;28;20200;-44
2022/09/17 02:38:04;;;;;;;1.90;1.70;;;18.10;59.80;19.10;100461.00;;;;5070149;28;20175;-42
2022/09/17 02:40:34;;;;;;;2.03;1.80;;;18.10;59.90;19.10;100458.00;;;;5070469;28;20212;-42
2022/09/17 02:43:40;;;;;;;2.07;1.70;;;18.10;60.00;19.10;100453.00;;;;5052760;28;20758;-42
2022/09/17 02:46:28;;;;;;;2.07;1.70;;;18.10;59.90;19.10;100452.00;;;;5053441;28;20235;-42
2022/09/17 02:49:18;;;;;;;2.60;1.90;;;18.10;59.90;19.10;100460.00;;;;5069736;28;20251;-42
2022/09/17 02:51:55;;;;;;;2.93;1.80;;;18.10;59.90;19.10;100453.00;;;;5069603;28;20197;-43
2022/09/17 02:54:46;;;;;;;2.47;1.70;;;18.10;59.90;19.10;100455.00;;;;5069707;28;20400;-41
2022/09/17 02:57:16;;;;;;;1.93;1.60;;;18.10;59.90;19.10;100452.00;;;;5069475;28;20583;-42
2022/09/17 02:59:52;;;;;;;1.90;1.70;;;18.00;59.90;19.00;100443.00;;;;5068352;28;20172;-42
2022/09/17 03:02:57;;;;;;;1.93;1.70;;;18.00;59.90;18.80;100456.00;;;;5068110;28;20257;-42
2022/09/17 03:05:23;;;;;;;1.43;1.33;;;18.00;60.00;19.00;100458.00;;;;5053874;28;20207;-44
2022/09/17 03:07:49;;;;;;;1.90;1.70;;;18.00;60.10;19.00;100453.00;;;;5068958;28;20197;-43
2022/09/17 03:10:15;;;;;;;2.07;1.63;;;18.00;60.00;19.00;100448.00;;;;5069412;28;20217;-42
2022/09/17 03:12:40;;;;;;;1.57;1.33;;;18.00;60.00;19.00;100447.00;;;;5069685;28;20197;-43
2022/09/17 03:15:07;;;;;;;2.60;1.67;;;18.00;60.10;19.00;100457.00;;;;5051138;28;20304;-43
2022/09/17 03:17:33;;;;;;;1.90;1.70;;;18.00;60.10;19.00;100463.00;;;;5069085;28;20516;-43
2022/09/17 03:19:58;;;;;;;1.90;1.70;;;18.00;60.00;19.00;100458.00;;;;5069208;28;20295;-43
2022/09/17 03:22:24;;;;;;;2.07;1.60;;;18.00;60.10;19.00;100476.00;;;;5069108;28;20232;-42
2022/09/17 03:24:50;;;;;;;2.07;1.70;;;18.00;60.00;19.00;100471.00;;;;5069137;28;20259;-42
2022/09/17 03:27:16;;;;;;;2.57;1.80;;;18.00;60.00;19.00;100468.00;;;;5068559;28;20192;-43
2022/09/17 03:29:41;;;;;;;2.57;1.80;;;18.00;60.10;19.00;100455.00;;;;5068297;28;20183;-43
2022/09/17 03:32:07;;;;;;;2.77;1.87;;;18.00;60.10;19.00;100464.00;;;;5077639;28;20270;-43
2022/09/17 03:34:33;;;;;;;3.43;1.80;;;18.00;60.10;19.00;100459.00;;;;5074583;28;20390;-42
2022/09/17 03:36:58;;;;;;;2.77;1.50;;;18.00;60.10;19.00;100459.00;;;;5068814;28;20168;-43
2022/09/17 03:39:24;;;;;;;3.13;1.80;;;17.90;60.00;19.00;100466.00;;;;5068840;28;20219;-43
2022/09/17 03:41:50;;;;;;;1.70;1.60;;;17.90;60.00;19.00;100462.00;;;;5068494;28;20221;-42
2022/09/17 03:44:18;;;;;;;1.77;1.67;;;18.00;60.00;19.00;100463.00;;;;5082549;28;20664;-43
2022/09/17 03:46:44;;;;;;;2.07;1.53;;;18.00;60.00;19.00;100464.00;;;;5085475;28;20212;-41
2022/09/17 03:49:09;;;;;;;2.53;1.80;;;17.90;60.00;19.00;100464.00;;;;5077692;28;20181;-42
2022/09/17 03:51:35;;;;;;;1.80;1.70;;;17.90;60.00;19.00;100391.00;;;;5068637;28;20542;-42
2022/09/17 03:54:02;;;;;;;2.33;1.80;;;17.90;60.00;19.00;100466.00;;;;5068387;28;20218;-43
2022/09/17 03:56:27;;;;;;;2.20;1.77;;;17.90;60.70;18.90;100465.00;;;;5067555;28;20168;-46
2022/09/17 03:58:58;;;;;;;4.47;1.53;;;17.90;60.00;19.00;100462.00;;;;5059054;28;20181;-42
2022/09/17 04:01:24;;;;;;;3.23;1.47;;;17.90;60.00;18.90;100465.00;;;;5061416;28;20569;-42
2022/09/17 04:03:49;;;;;;;2.70;1.90;;;17.90;60.10;18.90;100467.00;;;;5067861;28;20222;-44
2022/09/17 04:06:15;;;;;;;2.13;1.60;;;17.90;60.10;18.90;100467.00;;;;5068267;28;20273;-42
2022/09/17 04:08:42;;;;;;;4.47;1.90;;;17.90;60.00;18.90;100396.00;;;;5067616;28;20353;-44
2022/09/17 04:11:08;;;;;;;2.20;1.63;;;17.90;60.00;18.90;100463.00;;;;5067771;28;20268;-42
2022/09/17 04:13:34;;;;;;;2.57;1.60;;;17.90;60.00;18.90;100472.00;;;;5067966;28;20230;-42
2022/09/17 04:16:00;;;;;;;2.87;1.87;;;17.90;60.00;18.90;100471.00;;;;5067669;28;20200;-42
2022/09/17 04:18:26;;;;;;;2.87;2.00;;;17.90;60.00;18.90;100474.00;;;;5067994;28;20184;-42
2022/09/17 04:20:52;;;;;;;3.13;1.90;;;17.90;60.00;18.90;100476.00;;;;5069282;28;20151;-42
2022/09/17 04:23:18;;;;;;;4.30;2.10;;;17.90;60.00;18.90;100488.00;;;;5070617;28;20215;-42
2022/09/17 04:25:44;;;;;;;9.67;2.00;;;17.90;60.20;18.90;100474.00;;;;5066488;28;20279;-43
2022/09/17 04:28:09;;;;;;;9.10;2.07;;;17.80;60.10;18.90;100478.00;;;;5067264;28;20176;-44
2022/09/17 04:30:35;;;;;;;4.43;2.00;;;17.80;60.10;18.90;100485.00;;;;5066141;28;20241;-42
2022/09/17 04:33:01;;;;;;;4.23;2.23;;;17.90;60.10;18.90;100483.00;;;;5069476;28;20198;-42
2022/09/17 04:35:27;;;;;;;5.53;1.80;;;17.80;60.10;18.90;100485.00;;;;5069027;28;20624;-42
2022/09/17 04:37:56;;;;;;;3.97;1.80;;;17.80;60.10;18.90;100492.00;;;;5068883;28;20174;-42
2022/09/17 04:40:23;;;;;;;4.57;2.30;;;17.80;60.30;18.80;100480.00;;;;5076447;28;20200;-41
2022/09/17 04:42:55;;;;;;;6.30;1.90;;;17.80;60.00;18.80;100498.00;;;;5084326;28;20568;-42
2022/09/17 04:45:21;;;;;;;4.60;2.10;;;17.80;60.10;18.80;100501.00;;;;5080132;28;20168;-42
2022/09/17 04:47:47;;;;;;;5.27;1.90;;;17.80;60.10;18.80;100492.00;;;;5080594;28;20528;-42
2022/09/17 04:50:13;;;;;;;5.77;2.30;;;17.80;60.10;18.80;100493.00;;;;5075047;28;20471;-42
2022/09/17 04:52:42;;;;;;;3.50;2.10;;;17.80;60.30;18.80;100496.00;;;;5074027;28;20612;-41
2022/09/17 04:55:08;;;;;;;6.83;2.10;;;17.80;60.30;18.80;100499.00;;;;5074709;28;20664;-42
2022/09/17 04:57:34;;;;;;;7.47;2.00;;;17.80;60.40;18.80;100494.00;;;;5074288;28;20217;-42
2022/09/17 05:00:00;;;;;;;5.13;2.20;;;17.80;60.50;18.80;100499.00;;;;5074814;28;20181;-42
2022/09/17 05:02:26;;;;;;;8.83;2.27;;;17.80;60.40;18.80;100504.00;;;;5075824;28;20228;-42
2022/09/17 05:04:51;;;;;;;24.03;3.47;;;17.70;60.30;18.80;100499.00;;;;5075739;28;20169;-43
2022/09/17 05:07:17;;;;;;;22.67;4.03;;;17.80;60.60;18.80;100509.00;;;;5075276;28;20639;-43
2022/09/17 05:09:43;;;;;;;21.70;3.60;;;17.80;60.60;18.80;100505.00;;;;5075219;28;20213;-42
2022/09/17 05:12:09;;;;;;;13.23;3.57;;;17.70;60.50;18.80;100511.00;;;;5075392;28;20250;-42
2022/09/17 05:14:34;;;;;;;13.60;3.20;;;17.80;60.60;18.80;100510.00;;;;5065039;28;20262;-42
2022/09/17 05:17:00;;;;;;;16.80;3.60;;;17.80;60.60;18.60;100508.00;;;;4908220;28;20211;-43
2022/09/17 05:19:26;;;;;;;18.83;3.70;;;17.80;60.60;18.80;100515.00;;;;5074899;28;20174;-43
2022/09/17 05:21:52;;;;;;;13.77;3.27;;;17.70;60.50;18.80;100512.00;;;;5074458;28;20206;-42
2022/09/17 05:24:17;;;;;;;14.70;3.27;;;17.70;60.60;18.80;100520.00;;;;5074626;28;20172;-42
2022/09/17 05:26:43;;;;;;;9.83;3.30;;;17.70;60.60;18.80;100503.00;;;;5079187;28;20191;-42
2022/09/17 05:29:09;;;;;;;12.60;3.13;;;17.70;60.50;18.80;100498.00;;;;5085685;28;20181;-42
2022/09/17 05:31:34;;;;;;;10.50;3.40;;;17.70;60.60;18.80;100515.00;;;;5077892;28;20672;-42
2022/09/17 05:34:00;;;;;;;10.90;3.47;;;17.70;60.60;18.80;100519.00;;;;5074862;28;20183;-42
2022/09/17 05:36:26;;;;;;;9.90;2.70;;;17.70;60.60;18.80;100522.00;;;;5075040;28;20424;-43
2022/09/17 05:38:51;;;;;;;9.27;2.83;;;17.70;60.60;18.70;100520.00;;;;5074973;28;20598;-43
2022/09/17 05:41:18;;;;;;;11.00;2.83;;;17.70;60.70;18.70;100517.00;;;;5065586;28;20305;-43
2022/09/17 05:43:44;;;;;;;9.23;3.20;;;17.70;60.60;18.70;100525.00;;;;5061993;28;20236;-44
2022/09/17 05:46:10;;;;;;;8.47;2.87;;;17.70;60.60;18.70;100529.00;;;;5064224;28;20270;-42
2022/09/17 05:48:36;;;;;;;6.87;2.63;;;17.70;60.70;18.70;100539.00;;;;5074511;28;20788;-42
2022/09/17 05:51:01;;;;;;;8.47;2.53;;;17.70;60.60;18.70;100540.00;;;;5074940;28;20164;-42
2022/09/17 05:53:27;;;;;;;6.30;2.63;;;17.60;60.50;18.70;100546.00;;;;5071213;28;20201;-42
2022/09/17 05:55:59;;;;;;;8.70;2.97;;;17.70;60.60;18.40;100543.00;;;;5071410;28;20202;-42
2022/09/17 05:58:25;;;;;;;9.60;2.67;;;17.70;60.60;18.70;100543.00;;;;5071676;28;20174;-42
2022/09/17 06:00:51;;;;;;;8.37;2.60;;;17.70;60.60;18.70;100557.00;;;;5078706;28;20200;-42
2022/09/17 06:03:18;;;;;;;10.40;2.97;;;17.70;60.60;18.70;100561.00;;;;5106004;28;20185;-41
2022/09/17 06:05:57;;;;;;;6.90;2.67;;;17.60;60.50;18.70;100560.00;;;;5102001;28;20186;-42
2022/09/17 06:08:23;;;;;;;5.87;2.40;;;17.70;60.70;18.60;100558.00;;;;5090651;28;20175;-42
2022/09/17 06:10:48;;;;;;;6.43;2.57;;;17.60;60.50;18.60;100562.00;;;;5091386;28;20183;-42
2022/09/17 06:13:16;;;;;;;7.20;2.50;;;17.60;60.50;18.60;100558.00;;;;5091589;28;20229;-43
2022/09/17 06:15:42;;;;;;;3.57;2.00;;;17.60;60.70;18.60;100569.00;;;;5094624;28;20200;-49
2022/09/17 06:18:07;;;;;;;4.97;2.40;;;17.60;60.50;18.60;100571.00;;;;5093839;28;20177;-43
2022/09/17 06:20:33;;;;;;;4.20;2.27;;;17.60;60.60;18.60;100566.00;;;;5091433;28;20169;-42
2022/09/17 06:22:59;;;;;;;7.30;2.70;;;17.60;60.60;18.60;100560.00;;;;5091808;28;20192;-42
2022/09/17 06:25:25;;;;;;;6.27;2.67;;;17.60;60.70;18.60;100565.00;;;;5094372;28;20173;-43
2022/09/17 06:27:51;;;;;;;4.60;2.43;;;17.60;60.70;18.60;100556.00;;;;5092538;28;20769;-41
2022/09/17 06:30:16;;;;;;;3.27;2.37;;;17.60;60.70;18.60;100568.00;;;;5090296;28;20179;-42
2022/09/17 06:32:42;;;;;;;4.73;2.20;;;17.60;60.70;18.60;100567.00;;;;5091263;28;20231;-41
2022/09/17 06:35:09;;;;;;;4.53;2.30;;;17.60;60.70;18.60;100560.00;;;;5088945;28;20347;-42
2022/09/17 06:37:39;;;;;;;4.37;2.50;;;17.60;60.70;18.60;100559.00;;;;5091016;28;20450;-42
2022/09/17 06:40:05;;;;;;;5.07;2.30;;;17.60;60.70;18.60;100496.00;;;;5091127;28;20260;-42
2022/09/17 06:42:31;;;;;;;4.93;2.40;;;17.60;60.70;18.60;100573.00;;;;5091029;28;20250;-42
2022/09/17 06:44:57;;;;;;;3.67;2.40;;;17.60;60.70;18.60;100579.00;;;;5090515;28;20197;-42
2022/09/17 06:47:24;;;;;;;5.27;2.20;;;17.60;60.70;18.60;100576.00;;;;5090925;28;20229;-42
2022/09/17 06:49:50;;;;;;;4.57;2.20;;;17.60;60.70;18.60;100577.00;;;;5091454;28;20165;-42
2022/09/17 06:52:16;;;;;;;2.67;2.23;;;17.60;61.50;18.60;100576.00;;;;5092228;28;20242;-42
2022/09/17 06:54:42;;;;;;;6.10;2.60;;;17.50;60.60;18.50;100581.00;;;;5091786;28;20199;-41
2022/09/17 06:57:08;;;;;;;4.83;2.30;;;17.50;60.70;18.50;100592.00;;;;5090230;28;20169;-42
2022/09/17 06:59:33;;;;;;;4.53;2.13;;;17.50;60.70;18.50;100599.00;;;;5091337;28;20648;-44
2022/09/17 07:01:59;;;;;;;3.73;2.30;;;17.60;60.80;18.50;100583.00;;;;5090389;28;20185;-42
2022/09/17 07:04:25;;;;;;;5.10;2.43;;;17.60;60.80;18.50;100600.00;;;;5085042;28;20174;-42
2022/09/17 07:06:50;;;;;;;2.70;2.00;;;17.50;60.60;18.50;100598.00;;;;5070180;28;20192;-41
2022/09/17 07:09:16;;;;;;;4.47;2.40;;;17.50;60.60;18.50;100598.00;;;;5070580;28;20949;-42
2022/09/17 07:11:42;;;;;;;2.70;2.10;;;17.50;60.70;18.50;100591.00;;;;5070764;28;20279;-42
2022/09/17 07:14:07;;;;;;;2.73;2.03;;;17.50;60.70;18.50;100610.00;;;;5083386;28;20396;-42
2022/09/17 07:16:34;;;;;;;4.17;2.30;;;17.50;60.70;18.50;100597.00;;;;5088073;28;20178;-41
2022/09/17 07:19:01;;;;;;;4.67;2.13;;;17.50;60.70;18.50;100583.00;;;;5081078;28;20166;-42
2022/09/17 07:21:27;;;;;;;3.53;2.07;;;17.50;60.70;18.50;100595.00;;;;5070444;28;20190;-43
2022/09/17 07:23:53;;;;;;;3.23;2.00;;;17.50;60.80;18.50;100588.00;;;;5070745;28;20193;-43
2022/09/17 07:26:18;;;;;;;2.83;2.10;;;17.50;60.80;18.50;100601.00;;;;5071113;28;20527;-42
2022/09/17 07:28:44;;;;;;;4.83;2.30;;;17.50;60.80;18.50;100579.00;;;;5070646;28;20627;-43
2022/09/17 07:31:10;;;;;;;3.43;2.00;;;17.50;60.70;18.50;100583.00;;;;5074166;28;20175;-42
2022/09/17 07:33:36;;;;;;;2.90;1.97;;;17.50;60.80;18.50;100581.00;;;;5070578;28;20180;-42
2022/09/17 07:36:05;;;;;;;2.50;1.80;;;17.50;60.80;18.50;100591.00;;;;5069744;28;20206;-42
2022/09/17 07:38:32;;;;;;;3.80;2.20;;;17.40;60.80;18.50;100576.00;;;;5080743;28;20180;-41
2022/09/17 07:41:03;;;;;;;3.13;1.90;;;17.50;60.90;18.50;100586.00;;;;5081982;28;20248;-43
2022/09/17 07:43:31;;;;;;;3.60;2.00;;;17.40;60.80;18.50;100558.00;;;;5070005;28;20173;-43
2022/09/17 07:45:58;;;;;;;3.20;2.00;;;17.40;60.80;18.40;100570.00;;;;5069379;28;20625;-42
2022/09/17 07:48:24;;;;;;;3.77;1.90;;;17.50;60.90;18.40;100575.00;;;;5069708;28;20198;-42
2022/09/17 07:50:50;;;;;;;3.20;2.07;;;17.50;60.90;18.40;100582.00;;;;5070197;28;20171;-43
2022/09/17 07:53:15;;;;;;;2.80;1.97;;;17.40;60.80;18.50;100583.00;;;;5070373;28;20196;-42
2022/09/17 07:55:42;;;;;;;2.70;1.90;;;17.50;60.80;18.40;100594.00;;;;5069830;28;20256;-42
2022/09/17 07:58:07;;;;;;;3.43;2.07;;;17.40;60.80;18.50;100596.00;;;;5069565;28;20173;-42
2022/09/17 08:00:33;;;;;;;3.60;2.10;;;17.50;60.80;18.40;100590.00;;;;5072146;28;20176;-42
2022/09/17 08:02:59;;;;;;;3.70;2.20;;;17.40;60.80;18.50;100576.00;;;;5072636;28;20674;-41
2022/09/17 08:05:25;;;;;;;2.90;1.90;;;17.50;60.90;18.40;100583.00;;;;5079184;28;20170;-42
2022/09/17 08:07:51;;;;;;;2.33;1.83;;;17.40;60.80;18.40;100569.00;;;;5075755;28;20174;-42
2022/09/17 08:10:20;;;;;;;3.37;2.10;;;17.50;60.90;18.40;100587.00;;;;5068938;28;20191;-43
2022/09/17 08:12:50;;;;;;;3.07;2.00;;;17.50;61.00;18.40;100579.00;;;;5069596;28;20269;-43
2022/09/17 08:15:16;;;;;;;3.73;2.00;;;17.40;60.90;18.40;100581.00;;;;5068864;28;20194;-43
2022/09/17 08:17:45;;;;;;;2.60;1.90;;;17.40;61.00;18.40;100586.00;;;;5069038;28;20515;-43
2022/09/17 08:20:12;;;;;;;3.13;1.90;;;17.40;61.10;18.40;100581.00;;;;5069319;28;20176;-42
2022/09/17 08:22:38;;;;;;;2.40;1.80;;;17.40;61.10;18.40;100548.00;;;;5069025;28;20205;-42
2022/09/17 08:25:05;;;;;;;3.20;2.00;;;17.40;61.20;18.40;100576.00;;;;5069623;28;20769;-41
2022/09/17 08:27:31;;;;;;;2.50;1.60;;;17.40;61.20;18.40;100574.00;;;;5068912;28;20198;-42
2022/09/17 08:29:57;;;;;;;3.20;1.93;;;17.50;61.30;18.40;100577.00;;;;5069278;28;20395;-42
2022/09/17 08:32:23;;;;;;;2.17;1.70;;;17.40;61.20;18.40;100568.00;;;;5069094;28;20743;-42
2022/09/17 08:34:49;;;;;;;3.27;1.83;;;17.40;61.20;18.40;100572.00;;;;5069027;28;20192;-42
2022/09/17 08:37:15;;;;;;;2.80;1.80;;;17.40;61.20;18.40;100576.00;;;;5068906;28;20583;-43
2022/09/17 08:39:41;;;;;;;2.83;1.67;;;17.40;61.20;18.40;100589.00;;;;5069309;28;20333;-43
2022/09/17 08:42:24;;;;;;;2.87;1.73;;;17.40;61.20;18.40;100581.00;;;;5069041;28;20199;-43
2022/09/17 08:44:51;;;;;;;1.90;1.70;;;17.40;61.20;18.40;100587.00;;;;5052377;28;20162;-42
2022/09/17 08:47:37;;;;;;;2.23;1.70;;;17.40;61.20;18.40;100594.00;;;;5068075;28;20185;-42
2022/09/17 08:50:06;;;;;;;2.43;1.60;;;17.40;61.20;18.40;100587.00;;;;5069905;28;20649;-42
2022/09/17 08:53:01;;;;;;;2.20;1.60;;;17.40;61.20;18.40;100602.00;;;;5039342;28;20235;-42
2022/09/17 08:55:41;;;;;;;3.87;2.03;;;17.40;61.20;18.40;100559.00;;;;5069135;28;20192;-43
2022/09/17 08:58:52;;;;;;;3.07;2.10;;;17.40;61.30;18.40;100594.00;;;;5036024;28;20159;-42
2022/09/17 09:01:38;;;;;;;2.17;1.70;;;17.40;62.20;18.40;100588.00;;;;5068643;28;20164;-42
2022/09/17 09:04:31;;;;;;;2.87;1.67;;;17.40;61.30;18.30;100589.00;;;;5068351;28;20219;-42
2022/09/17 09:07:22;;;;;;;3.00;1.83;;;17.40;61.50;18.30;100590.00;;;;5069030;28;20245;-42
2022/09/17 09:10:27;;;;;;;3.53;1.77;;;17.40;61.50;18.40;100583.00;;;;5067560;28;20259;-43
2022/09/17 09:12:53;;;;;;;2.67;1.80;;;17.40;61.60;18.30;100575.00;;;;5064730;28;20208;-42
2022/09/17 09:15:41;;;;;;;1.97;1.73;;;17.40;61.70;18.30;100587.00;;;;5050838;28;20388;-43
2022/09/17 09:18:21;;;;;;;2.77;1.70;;;17.40;61.70;18.30;100594.00;;;;5067242;28;20172;-43
2022/09/17 09:20:54;;;;;;;3.43;1.60;;;17.40;61.70;18.30;100586.00;;;;5068430;28;20205;-43
2022/09/17 09:23:31;;;;;;;3.10;1.87;;;17.40;61.80;18.40;100586.00;;;;5067345;28;20195;-43
2022/09/17 09:26:12;;;;;;;2.10;1.80;;;17.40;61.70;18.40;100589.00;;;;5068718;28;20178;-43
2022/09/17 09:28:50;;;;;;;2.80;1.60;;;17.40;61.70;18.30;100591.00;;;;5054853;28;20174;-43
2022/09/17 09:31:46;;;;;;;2.23;1.53;;;17.40;61.80;18.40;100583.00;;;;5071042;28;20240;-43
2022/09/17 09:34:13;;;;;;;2.90;1.60;;;17.40;61.90;18.40;100590.00;;;;5072180;28;20196;-43
2022/09/17 09:36:38;;;;;;;2.40;1.80;;;17.40;61.90;18.40;100582.00;;;;5038744;28;20166;-42
2022/09/17 09:39:21;;;;;;;2.17;1.60;;;17.40;61.90;18.40;100601.00;;;;5067251;28;20581;-43
2022/09/17 09:41:53;;;;;;;2.50;1.87;;;17.40;61.90;18.40;100587.00;;;;5046205;28;20200;-43
2022/09/17 09:44:18;;;;;;;2.10;1.60;;;17.40;61.90;18.40;100590.00;;;;5085960;28;20179;-41
2022/09/17 09:47:03;;;;;;;2.47;1.90;;;17.40;61.90;18.40;100590.00;;;;5069980;28;20642;-42
2022/09/17 09:49:57;;;;;;;2.80;1.70;;;17.40;62.00;18.40;100580.00;;;;5071304;28;20187;-43
2022/09/17 09:53:17;;;;;;;5.43;1.77;;;17.40;62.30;18.40;100572.00;;;;5069553;28;20206;-41
2022/09/17 09:55:55;;;;;;;5.87;2.20;;;17.40;62.90;18.40;100575.00;;;;5045645;28;20218;-42
2022/09/17 09:58:38;;;;;;;5.97;2.03;;;17.50;62.90;18.30;100563.00;;;;5073096;28;20252;-41
2022/09/17 10:01:30;;;;;;;5.70;1.80;;;17.50;63.10;18.40;100573.00;;;;5072874;28;20161;-41
2022/09/17 10:03:57;;;;;;;5.40;2.17;;;17.60;63.30;18.30;100573.00;;;;5066382;28;20205;-42
2022/09/17 10:06:23;;;;;;;12.93;2.20;;;17.60;63.20;18.40;100587.00;;;;5078809;28;20204;-42
2022/09/17 10:08:49;;;;;;;15.10;2.23;;;17.70;63.30;18.40;100570.00;;;;5081846;28;20213;-42
2022/09/17 10:11:20;;;;;;;6.30;2.03;;;17.70;63.10;18.40;100564.00;;;;5071457;28;20215;-42
2022/09/17 10:13:46;;;;;;;2.73;1.50;;;17.80;62.90;18.50;100560.00;;;;5071750;28;20172;-42
2022/09/17 10:16:16;;;;;;;5.80;2.00;;;17.80;62.70;18.50;100571.00;;;;5070567;28;20198;-42
2022/09/17 10:18:43;;;;;;;5.87;1.93;;;17.90;63.10;18.30;100558.00;;;;5070715;28;20163;-42
2022/09/17 10:21:22;;;;;;;7.73;2.10;;;17.90;63.20;18.50;100561.00;;;;5069910;28;20176;-42
2022/09/17 10:23:48;;;;;;;6.43;2.23;;;17.90;63.10;18.50;100556.00;;;;5071478;28;20156;-42
2022/09/17 10:26:34;;;;;;;9.13;2.20;;;18.00;63.20;18.60;100551.00;;;;5070280;28;20188;-42
2022/09/17 10:29:01;;;;;;;8.23;2.00;;;18.00;63.30;18.50;100566.00;;;;5055058;28;20588;-42
2022/09/17 10:31:27;;;;;;;7.00;2.17;;;18.00;63.00;18.60;100553.00;;;;5070395;28;20239;-42
2022/09/17 10:34:02;;;;;;;3.60;2.23;;;18.00;63.80;18.60;100552.00;;;;5070530;28;20579;-42
2022/09/17 10:36:44;;;;;;;9.23;1.70;;;18.00;62.90;18.60;100554.00;;;;5069924;28;20179;-45
2022/09/17 10:39:30;;;;;;;7.27;2.03;;;18.10;63.90;18.50;100549.00;;;;5072921;28;20260;-43
2022/09/17 10:42:16;;;;;;;6.77;2.00;;;18.20;62.90;18.70;100544.00;;;;5100298;28;20184;-43
2022/09/17 10:44:56;;;;;;;4.77;2.07;;;18.20;63.00;18.70;100547.00;;;;5096325;28;20210;-42
2022/09/17 10:47:28;;;;;;;4.23;1.70;;;18.30;62.90;18.80;100535.00;;;;5095707;28;20249;-42
2022/09/17 10:50:13;;;;;;;3.87;1.60;;;18.40;62.90;18.80;100543.00;;;;5076136;28;20162;-42
2022/09/17 10:52:42;;;;;;;3.57;1.60;;;18.50;62.70;18.90;100520.00;;;;5106531;28;20574;-41
2022/09/17 10:55:43;;;;;;;4.97;1.60;;;18.70;62.60;19.00;100513.00;;;;5073462;28;20275;-43
2022/09/17 10:59:05;;;;;;;5.33;1.83;;;18.90;62.30;19.20;100545.00;;;;5089197;28;20197;-41
2022/09/17 11:02:01;;;;;;;5.77;1.60;;;19.10;61.90;19.30;100542.00;;;;5083049;28;20207;-41
2022/09/17 11:04:45;;;;;;;5.13;1.90;;;19.40;61.50;19.40;100553.00;;;;5066295;28;20186;-42
2022/09/17 11:07:43;;;;;;;9.57;1.90;;;19.40;61.40;19.60;100549.00;;;;5067926;28;20180;-42
2022/09/17 11:10:20;;;;;;;2.47;1.40;;;19.50;61.30;19.60;100544.00;;;;5068760;28;20653;-42